Time;durP1;ratioP1;P1;durP2;ratioP2;P2;SDS_P1;SDS_P2;PMS_P1;PMS_P2;Temp;Humidity;BMP_temperature;BMP_pressure;BME280_temperature;BME280_humidity;BME280_pressure;Samples;Min_cycle;Max_cycle;Signal;HPM_P1;HPM_P2
2021/07/23 00:02:30;;;;;;;11.80;7.13;;;14.30;99.90;;;;;;5154412;27;20346;-66
2021/07/23 00:05:18;;;;;;;12.13;6.83;;;14.30;99.90;;;;;;5154352;27;20205;-66
2021/07/23 00:08:08;;;;;;;13.17;7.10;;;14.30;99.90;;;;;;5154234;27;20727;-66
2021/07/23 00:10:55;;;;;;;12.23;7.33;;;14.30;99.90;;;;;;5155410;27;20198;-66
2021/07/23 00:13:43;;;;;;;12.83;7.73;;;14.30;99.90;;;;;;5154136;27;20213;-66
2021/07/23 00:16:30;;;;;;;14.43;8.00;;;14.40;99.90;;;;;;5155252;27;20205;-66
2021/07/23 00:19:18;;;;;;;14.93;7.53;;;14.40;99.90;;;;;;5154046;27;20220;-66
2021/07/23 00:22:05;;;;;;;15.63;7.57;;;14.40;99.90;;;;;;5154713;27;20228;-66
2021/07/23 00:24:54;;;;;;;12.40;7.40;;;14.40;99.90;;;;;;5154051;27;20557;-66
2021/07/23 00:27:42;;;;;;;13.27;7.63;;;14.40;99.90;;;;;;5153934;27;20214;-66
2021/07/23 00:30:30;;;;;;;18.00;9.03;;;14.30;99.90;;;;;;5154458;27;20576;-66
2021/07/23 00:33:17;;;;;;;17.30;8.73;;;14.40;99.90;;;;;;5153582;27;20648;-66
2021/07/23 00:36:06;;;;;;;12.83;8.20;;;14.50;99.90;;;;;;5153779;27;20194;-66
2021/07/23 00:38:53;;;;;;;14.23;7.60;;;14.50;99.90;;;;;;5154406;27;20436;-66
2021/07/23 00:41:42;;;;;;;14.10;7.73;;;14.50;99.90;;;;;;5152582;27;20660;-66
2021/07/23 00:44:30;;;;;;;14.77;7.87;;;14.50;99.90;;;;;;5153727;27;20196;-66
2021/07/23 00:47:17;;;;;;;11.93;8.27;;;14.50;99.90;;;;;;5154170;27;20566;-66
2021/07/23 00:50:06;;;;;;;17.43;8.43;;;14.50;99.90;;;;;;5154278;27;20211;-66
2021/07/23 00:52:53;;;;;;;15.27;8.00;;;14.60;99.90;;;;;;5153878;27;20597;-66
2021/07/23 00:55:41;;;;;;;15.43;7.77;;;14.60;99.90;;;;;;5154393;27;20232;-66
2021/07/23 00:58:30;;;;;;;12.93;7.33;;;14.60;99.90;;;;;;5153401;27;20200;-66
2021/07/23 01:01:18;;;;;;;11.07;7.10;;;14.60;99.90;;;;;;5153250;27;20198;-66
2021/07/23 01:04:06;;;;;;;13.57;7.10;;;14.60;99.90;;;;;;5153759;27;20221;-66
2021/07/23 01:06:53;;;;;;;13.87;8.37;;;14.70;99.90;;;;;;5153672;27;20200;-66
2021/07/23 01:09:41;;;;;;;13.03;7.37;;;14.70;99.90;;;;;;5153186;27;20567;-66
2021/07/23 01:12:29;;;;;;;15.53;7.93;;;14.70;99.90;;;;;;5153123;27;20666;-66
2021/07/23 01:15:18;;;;;;;12.50;7.27;;;14.70;99.90;;;;;;5153537;27;20194;-66
2021/07/23 01:18:06;;;;;;;14.37;7.13;;;14.70;99.90;;;;;;5153034;27;20202;-66
2021/07/23 01:20:54;;;;;;;14.03;6.20;;;14.70;99.90;;;;;;5153402;27;20299;-66
2021/07/23 01:23:43;;;;;;;12.30;7.20;;;14.70;99.90;;;;;;5153228;27;20221;-67
2021/07/23 01:26:31;;;;;;;13.60;7.80;;;14.70;99.90;;;;;;5153309;27;20203;-66
2021/07/23 01:29:18;;;;;;;9.93;6.97;;;14.80;99.90;;;;;;5153196;27;20204;-66
2021/07/23 01:32:07;;;;;;;19.63;7.57;;;14.80;99.90;;;;;;5152523;27;20198;-66
2021/07/23 01:34:54;;;;;;;15.17;7.00;;;14.80;99.90;;;;;;5152385;27;20199;-66
2021/07/23 01:37:42;;;;;;;12.30;7.20;;;14.80;99.90;;;;;;5152505;27;20274;-66
2021/07/23 01:40:31;;;;;;;14.23;6.77;;;14.80;99.90;;;;;;5152347;27;20203;-66
2021/07/23 01:43:19;;;;;;;14.63;7.20;;;14.80;99.90;;;;;;5152294;27;20210;-66
2021/07/23 01:46:07;;;;;;;19.80;6.83;;;14.90;99.90;;;;;;5152746;27;20218;-66
2021/07/23 01:48:54;;;;;;;12.40;6.93;;;14.90;99.90;;;;;;5152961;27;20193;-66
2021/07/23 01:51:42;;;;;;;12.57;7.17;;;14.90;99.90;;;;;;5152840;27;20670;-66
2021/07/23 01:54:29;;;;;;;15.57;7.13;;;14.90;99.90;;;;;;5152297;27;20212;-66
2021/07/23 01:57:19;;;;;;;13.50;7.43;;;15.00;99.90;;;;;;5152150;27;20213;-66
2021/07/23 02:00:08;;;;;;;14.13;7.93;;;15.00;99.90;;;;;;5152106;27;20195;-67
2021/07/23 02:02:56;;;;;;;18.47;7.30;;;15.00;99.90;;;;;;5152487;27;20877;-66
2021/07/23 02:05:43;;;;;;;12.53;7.50;;;15.00;99.90;;;;;;5152614;27;20251;-67
2021/07/23 02:08:31;;;;;;;12.23;7.27;;;15.10;99.90;;;;;;5152654;27;20671;-66
2021/07/23 02:11:18;;;;;;;14.80;7.30;;;15.00;99.90;;;;;;5152405;27;20197;-66
2021/07/23 02:14:07;;;;;;;15.07;7.70;;;15.00;99.90;;;;;;5151581;27;20200;-66
2021/07/23 02:16:55;;;;;;;14.67;7.87;;;15.00;99.90;;;;;;5152384;27;20587;-66
2021/07/23 02:19:42;;;;;;;12.50;7.77;;;15.00;99.90;;;;;;5152500;27;20285;-66
2021/07/23 02:22:30;;;;;;;20.87;7.83;;;15.10;99.90;;;;;;5152263;27;20216;-66
2021/07/23 02:25:18;;;;;;;14.83;8.10;;;15.10;99.90;;;;;;5151466;27;20197;-66
2021/07/23 02:28:05;;;;;;;18.60;8.33;;;15.10;99.90;;;;;;5151442;27;20194;-66
2021/07/23 02:30:54;;;;;;;16.23;8.30;;;15.20;99.90;;;;;;5151411;27;20228;-66
2021/07/23 02:33:42;;;;;;;13.83;8.10;;;15.20;99.90;;;;;;5151762;27;20202;-66
2021/07/23 02:36:30;;;;;;;19.40;8.27;;;15.20;99.90;;;;;;5151282;27;20200;-66
2021/07/23 02:39:17;;;;;;;18.43;7.97;;;15.30;99.90;;;;;;5151470;27;20200;-66
2021/07/23 02:42:05;;;;;;;19.87;8.40;;;15.30;99.90;;;;;;5151517;27;20262;-66
2021/07/23 02:44:53;;;;;;;13.57;7.43;;;15.30;99.90;;;;;;5151774;27;20606;-66
2021/07/23 02:47:42;;;;;;;16.97;8.63;;;15.30;99.90;;;;;;5152467;27;20678;-66
2021/07/23 02:50:30;;;;;;;21.10;8.63;;;15.30;99.90;;;;;;5151731;27;20201;-66
2021/07/23 02:53:18;;;;;;;16.67;8.37;;;15.30;99.90;;;;;;5151383;27;20707;-66
2021/07/23 02:56:07;;;;;;;18.53;7.87;;;15.30;99.90;;;;;;5151724;27;20194;-66
2021/07/23 02:58:55;;;;;;;17.57;8.70;;;15.30;99.90;;;;;;5151052;27;20203;-66
2021/07/23 03:01:42;;;;;;;15.87;8.10;;;15.30;99.90;;;;;;5151260;27;20224;-66
2021/07/23 03:04:31;;;;;;;15.77;8.43;;;15.30;99.90;;;;;;5150406;27;20311;-66
2021/07/23 03:07:19;;;;;;;13.87;7.97;;;15.30;99.90;;;;;;5151556;27;20216;-66
2021/07/23 03:10:07;;;;;;;18.43;8.50;;;15.30;99.90;;;;;;5151418;27;20661;-66
2021/07/23 03:13:26;;;;;;;19.93;7.30;;;15.30;99.90;;;;;;5151064;27;20194;-66
2021/07/23 03:16:15;;;;;;;16.77;7.73;;;15.30;99.90;;;;;;5151111;27;20208;-66
2021/07/23 03:19:15;;;;;;;14.17;8.03;;;15.30;99.90;;;;;;5151458;27;20283;-66
2021/07/23 03:22:31;;;;;;;15.30;8.27;;;15.30;99.90;;;;;;5151365;27;20202;-66
2021/07/23 03:25:19;;;;;;;12.77;7.33;;;15.40;99.90;;;;;;5152763;27;20198;-66
2021/07/23 03:28:08;;;;;;;11.40;7.10;;;15.40;99.90;;;;;;5154896;27;20663;-66
2021/07/23 03:30:55;;;;;;;13.97;7.93;;;15.30;99.90;;;;;;5155536;27;20203;-66
2021/07/23 03:33:43;;;;;;;16.80;7.87;;;15.30;99.90;;;;;;5154980;27;20201;-66
2021/07/23 03:36:30;;;;;;;15.37;7.87;;;15.40;99.90;;;;;;5154635;27;20200;-66
2021/07/23 03:39:19;;;;;;;15.93;7.90;;;15.40;99.90;;;;;;5155393;27;20283;-66
2021/07/23 03:42:07;;;;;;;18.33;7.80;;;15.40;99.90;;;;;;5155558;27;20210;-66
2021/07/23 03:44:54;;;;;;;16.20;7.73;;;15.50;99.90;;;;;;5154546;27;20562;-66
2021/07/23 03:47:42;;;;;;;18.13;7.90;;;15.50;99.90;;;;;;5154877;27;20573;-66
2021/07/23 03:50:30;;;;;;;13.87;7.23;;;15.50;99.90;;;;;;5154624;27;20566;-66
2021/07/23 03:53:17;;;;;;;10.63;7.20;;;15.60;99.90;;;;;;5155004;27;20226;-66
2021/07/23 03:56:07;;;;;;;14.57;7.70;;;15.70;99.90;;;;;;5154677;27;20213;-66
2021/07/23 03:58:54;;;;;;;13.30;8.47;;;15.80;99.90;;;;;;5154301;27;20203;-66
2021/07/23 04:01:42;;;;;;;12.10;7.30;;;15.70;99.90;;;;;;5154531;27;20254;-66
2021/07/23 04:04:30;;;;;;;14.27;7.20;;;15.80;99.90;;;;;;5154805;27;20713;-66
2021/07/23 04:07:17;;;;;;;15.50;7.17;;;15.80;99.90;;;;;;5154916;27;20204;-66
2021/07/23 04:10:09;;;;;;;18.63;7.47;;;15.80;99.90;;;;;;5154208;27;20208;-66
2021/07/23 04:12:58;;;;;;;14.50;6.83;;;15.80;99.90;;;;;;5154038;27;20198;-66
2021/07/23 04:15:46;;;;;;;13.37;7.43;;;15.90;99.90;;;;;;5154659;27;20195;-66
2021/07/23 04:18:33;;;;;;;11.90;6.97;;;15.90;99.90;;;;;;5154695;27;20208;-66
2021/07/23 04:21:21;;;;;;;11.37;7.10;;;16.00;99.90;;;;;;5154198;27;20286;-66
2021/07/23 04:24:08;;;;;;;11.97;6.90;;;16.00;99.90;;;;;;5154301;27;20254;-66
2021/07/23 04:26:58;;;;;;;10.53;7.67;;;16.10;99.90;;;;;;5153957;27;20211;-66
2021/07/23 04:29:47;;;;;;;10.90;6.87;;;16.10;99.90;;;;;;5153816;27;20675;-66
2021/07/23 04:32:35;;;;;;;11.50;7.43;;;16.20;99.90;;;;;;5153774;27;20205;-66
2021/07/23 04:35:22;;;;;;;13.23;7.67;;;16.20;99.90;;;;;;5154358;27;20235;-66
2021/07/23 04:38:10;;;;;;;17.03;8.73;;;16.30;99.90;;;;;;5153429;27;20677;-66
2021/07/23 04:40:57;;;;;;;14.50;8.47;;;16.40;99.90;;;;;;5153714;27;20207;-66
2021/07/23 04:43:45;;;;;;;19.40;7.87;;;16.40;99.90;;;;;;5153619;27;20724;-66
2021/07/23 04:46:34;;;;;;;13.73;8.83;;;16.50;99.90;;;;;;5153449;27;20703;-66
2021/07/23 04:49:22;;;;;;;19.37;8.87;;;16.50;99.90;;;;;;5154012;27;20199;-66
2021/07/23 04:52:09;;;;;;;16.10;9.17;;;16.60;99.90;;;;;;5153382;27;20208;-66
2021/07/23 04:54:57;;;;;;;17.27;8.93;;;16.60;99.90;;;;;;5153310;27;20571;-66
2021/07/23 04:57:45;;;;;;;13.50;8.33;;;16.70;99.90;;;;;;5153173;27;20254;-66
2021/07/23 05:00:32;;;;;;;14.47;8.77;;;16.80;99.90;;;;;;5153974;27;20209;-66
2021/07/23 05:03:21;;;;;;;15.53;8.67;;;16.90;99.90;;;;;;5154059;27;20221;-66
2021/07/23 05:06:09;;;;;;;20.77;9.13;;;16.90;99.90;;;;;;5154087;27;20247;-66
2021/07/23 05:08:57;;;;;;;19.03;9.37;;;17.00;99.90;;;;;;5153661;27;20206;-66
2021/07/23 05:11:45;;;;;;;15.73;8.70;;;17.10;99.90;;;;;;5152970;27;20199;-66
2021/07/23 05:14:32;;;;;;;23.33;8.70;;;17.10;99.90;;;;;;5153001;27;20204;-66
2021/07/23 05:17:20;;;;;;;16.70;9.10;;;17.20;99.90;;;;;;5153059;27;20210;-66
2021/07/23 05:20:11;;;;;;;15.00;8.30;;;17.30;99.90;;;;;;5153523;27;20201;-66
2021/07/23 05:22:59;;;;;;;15.63;9.33;;;17.30;99.90;;;;;;5153004;27;20209;-66
2021/07/23 05:25:46;;;;;;;15.90;8.37;;;17.40;99.90;;;;;;5153405;27;20272;-66
2021/07/23 05:28:34;;;;;;;15.17;8.73;;;17.60;99.90;;;;;;5153320;27;20195;-66
2021/07/23 05:31:22;;;;;;;14.37;8.93;;;17.70;99.90;;;;;;5152530;27;20666;-66
2021/07/23 05:34:09;;;;;;;14.97;8.90;;;17.90;99.90;;;;;;5153446;27;20195;-66
2021/07/23 05:37:06;;;;;;;13.93;8.17;;;18.10;99.90;;;;;;5152545;27;20198;-66
2021/07/23 05:40:01;;;;;;;13.83;7.97;;;18.10;99.90;;;;;;5152465;27;20195;-66
2021/07/23 05:42:51;;;;;;;20.37;8.10;;;18.30;99.90;;;;;;5152464;27;20571;-66
2021/07/23 05:45:39;;;;;;;14.80;7.80;;;18.40;99.90;;;;;;5152187;27;20212;-66
2021/07/23 05:48:27;;;;;;;13.13;8.53;;;18.50;99.90;;;;;;5153041;27;20204;-66
2021/07/23 05:51:15;;;;;;;14.00;8.40;;;18.70;99.90;;;;;;5152844;27;20204;-66
2021/07/23 05:54:04;;;;;;;11.03;7.33;;;18.80;99.90;;;;;;5152225;27;20243;-66
2021/07/23 05:56:51;;;;;;;12.97;7.40;;;19.00;99.90;;;;;;5152275;27;20640;-66
2021/07/23 05:59:39;;;;;;;13.10;7.00;;;19.10;99.90;;;;;;5152583;27;20650;-66
2021/07/23 06:02:26;;;;;;;14.90;7.10;;;19.30;99.90;;;;;;5152477;27;20210;-66
2021/07/23 06:05:14;;;;;;;13.97;6.60;;;19.40;99.90;;;;;;5152065;27;20221;-66
2021/07/23 06:08:02;;;;;;;9.93;6.23;;;19.50;99.90;;;;;;5152534;27;20208;-66
2021/07/23 06:10:51;;;;;;;12.43;7.03;;;19.70;99.90;;;;;;5151677;27;20565;-66
2021/07/23 06:13:41;;;;;;;10.90;6.40;;;19.90;99.90;;;;;;5152308;27;20206;-66
2021/07/23 06:16:32;;;;;;;13.30;6.70;;;20.10;99.90;;;;;;5151544;27;20253;-66
2021/07/23 06:19:20;;;;;;;16.10;6.73;;;20.20;99.90;;;;;;5152262;27;20201;-66
2021/07/23 06:22:08;;;;;;;12.17;6.67;;;20.30;99.90;;;;;;5151628;27;20197;-66
2021/07/23 06:24:58;;;;;;;16.57;6.90;;;20.50;99.90;;;;;;5152013;27;20232;-66
2021/07/23 06:27:47;;;;;;;19.00;7.67;;;20.70;99.90;;;;;;5152189;27;20194;-66
2021/07/23 06:30:35;;;;;;;11.37;7.30;;;20.90;99.90;;;;;;5152154;27;20206;-66
2021/07/23 06:33:22;;;;;;;12.40;6.73;;;21.00;99.90;;;;;;5151616;27;20193;-66
2021/07/23 06:36:10;;;;;;;10.80;6.30;;;21.10;99.90;;;;;;5151655;27;20198;-66
2021/07/23 06:38:58;;;;;;;14.60;6.67;;;21.10;99.90;;;;;;5151886;27;20682;-66
2021/07/23 06:41:45;;;;;;;13.13;6.70;;;21.30;99.90;;;;;;5152090;27;20205;-66
2021/07/23 06:44:37;;;;;;;10.53;5.83;;;21.50;99.90;;;;;;5151202;27;20210;-66
2021/07/23 06:47:25;;;;;;;12.40;6.63;;;21.60;99.90;;;;;;5151098;27;20221;-66
2021/07/23 06:50:14;;;;;;;9.57;6.07;;;21.90;99.90;;;;;;5151358;27;20206;-66
2021/07/23 06:53:08;;;;;;;12.47;6.00;;;22.10;99.90;;;;;;5151013;27;20767;-66
2021/07/23 06:55:57;;;;;;;11.33;6.17;;;22.30;99.90;;;;;;5151912;27;20197;-66
2021/07/23 06:58:50;;;;;;;9.93;5.73;;;22.20;99.90;;;;;;5151077;27;20198;-66
2021/07/23 07:01:43;;;;;;;9.70;6.27;;;22.10;99.90;;;;;;5150800;27;20210;-66
2021/07/23 07:04:38;;;;;;;10.10;6.20;;;22.40;99.90;;;;;;5151664;27;20221;-66
2021/07/23 07:07:25;;;;;;;9.67;6.07;;;22.30;99.90;;;;;;5151710;27;20691;-66
2021/07/23 07:10:13;;;;;;;10.97;6.07;;;22.40;99.90;;;;;;5151279;27;20203;-66
2021/07/23 07:13:01;;;;;;;12.10;5.57;;;22.50;99.90;;;;;;5151148;27;20314;-66
2021/07/23 07:15:49;;;;;;;14.77;6.97;;;22.50;99.90;;;;;;5150888;27;20678;-66
2021/07/23 07:18:38;;;;;;;10.50;5.90;;;22.50;99.90;;;;;;5150757;27;20270;-66
2021/07/23 07:21:29;;;;;;;11.97;6.40;;;22.70;99.90;;;;;;5150844;27;20198;-66
2021/07/23 07:24:23;;;;;;;14.53;5.90;;;22.70;99.90;;;;;;5150666;27;20223;-66
2021/07/23 07:27:12;;;;;;;13.60;6.00;;;23.00;99.90;;;;;;5151778;27;20202;-66
2021/07/23 07:30:07;;;;;;;11.27;5.67;;;23.30;99.90;;;;;;5151378;27;20229;-66
2021/07/23 07:32:56;;;;;;;10.97;6.63;;;23.50;99.90;;;;;;5151274;27;20204;-67
2021/07/23 07:35:55;;;;;;;11.13;6.07;;;23.60;99.90;;;;;;5150716;27;20190;-66
2021/07/23 07:38:48;;;;;;;11.07;6.60;;;23.60;99.90;;;;;;5150943;27;20194;-67
2021/07/23 07:41:36;;;;;;;12.27;6.60;;;23.50;99.90;;;;;;5150525;27;20251;-66
2021/07/23 07:44:23;;;;;;;13.47;6.03;;;23.40;99.90;;;;;;5150780;27;20293;-66
2021/07/23 07:47:11;;;;;;;7.47;5.40;;;23.40;99.90;;;;;;5151446;27;21011;-66
2021/07/23 07:49:58;;;;;;;11.17;5.30;;;23.50;99.90;;;;;;5151804;27;20194;-66
2021/07/23 07:52:47;;;;;;;14.30;5.77;;;23.50;99.90;;;;;;5150542;27;20342;-66
2021/07/23 07:55:35;;;;;;;9.73;5.33;;;23.60;99.90;;;;;;5151242;27;20229;-66
2021/07/23 07:58:23;;;;;;;18.92;5.70;;;23.80;99.90;;;;;;5151088;27;20202;-66
2021/07/23 08:01:11;;;;;;;12.02;5.60;;;24.00;99.90;;;;;;5150543;27;20639;-66
2021/07/23 08:03:59;;;;;;;10.48;5.78;;;24.00;99.90;;;;;;5150296;27;20190;-66
2021/07/23 08:06:48;;;;;;;14.32;5.57;;;24.20;99.90;;;;;;5151051;27;20616;-66
2021/07/23 08:09:46;;;;;;;14.27;5.97;;;24.40;99.90;;;;;;5151593;27;20209;-66
2021/07/23 08:12:33;;;;;;;12.95;5.85;;;24.60;99.90;;;;;;5153617;27;20198;-66
2021/07/23 08:15:21;;;;;;;8.02;5.18;;;24.80;99.90;;;;;;5154904;27;20648;-66
2021/07/23 08:18:09;;;;;;;7.38;4.90;;;25.00;99.90;;;;;;5154536;27;20647;-66
2021/07/23 08:20:59;;;;;;;11.38;5.40;;;25.00;99.90;;;;;;5152711;27;20200;-66
2021/07/23 08:23:46;;;;;;;12.93;5.80;;;25.20;99.90;;;;;;5154517;27;20201;-66
2021/07/23 08:26:36;;;;;;;13.40;6.55;;;25.20;99.90;;;;;;5154245;27;20190;-66
2021/07/23 08:29:23;;;;;;;12.75;6.13;;;25.10;99.90;;;;;;5154095;27;20202;-66
2021/07/23 08:32:12;;;;;;;8.07;5.72;;;25.10;99.90;;;;;;5153928;27;20647;-66
2021/07/23 08:34:59;;;;;;;10.27;5.28;;;25.00;99.90;;;;;;5153941;27;20563;-66
2021/07/23 08:37:47;;;;;;;7.55;5.00;;;25.00;99.90;;;;;;5154280;27;20194;-66
2021/07/23 08:40:35;;;;;;;9.05;5.57;;;25.30;99.90;;;;;;5153832;27;20225;-66
2021/07/23 08:43:24;;;;;;;11.07;5.22;;;25.40;99.90;;;;;;5153812;27;20194;-66
2021/07/23 08:46:11;;;;;;;10.43;5.35;;;25.70;99.90;;;;;;5153555;27;20232;-66
2021/07/23 08:49:00;;;;;;;14.85;5.82;;;25.70;99.90;;;;;;5154154;27;20784;-67
2021/07/23 08:51:50;;;;;;;10.95;5.72;;;26.10;99.90;;;;;;5154086;27;20201;-66
2021/07/23 08:54:38;;;;;;;11.38;5.55;;;26.60;99.90;;;;;;5112753;28;20203;-66
2021/07/23 08:57:26;;;;;;;10.07;5.75;;;26.30;99.90;;;;;;5112160;28;20248;-66
2021/07/23 09:00:16;;;;;;;12.98;5.57;;;26.10;99.90;;;;;;5113368;28;20222;-67
2021/07/23 09:03:05;;;;;;;8.27;5.38;;;25.80;99.90;;;;;;5110726;28;20196;-66
2021/07/23 09:05:52;;;;;;;8.50;5.63;;;25.60;99.90;;;;;;5112737;28;20211;-66
2021/07/23 09:08:47;;;;;;;9.93;5.72;;;25.40;99.90;;;;;;5113082;28;20202;-66
2021/07/23 09:11:34;;;;;;;7.43;5.53;;;25.60;99.90;;;;;;5113030;27;20316;-66
2021/07/23 09:14:23;;;;;;;8.60;5.05;;;26.20;99.90;;;;;;5111750;28;20688;-66
2021/07/23 09:17:12;;;;;;;9.63;4.85;;;26.80;99.90;;;;;;5112402;28;20244;-66
2021/07/23 09:20:03;;;;;;;10.15;4.93;;;27.00;99.90;;;;;;5112282;28;20195;-66
2021/07/23 09:22:51;;;;;;;8.65;4.80;;;27.20;99.90;;;;;;5112333;28;20280;-66
2021/07/23 09:25:41;;;;;;;7.85;5.25;;;27.20;99.90;;;;;;5112344;28;20582;-66
2021/07/23 09:28:37;;;;;;;8.00;5.00;;;27.00;99.90;;;;;;5112719;28;20208;-67
2021/07/23 09:31:28;;;;;;;10.57;5.47;;;26.60;99.90;;;;;;5111990;28;20484;-66
2021/07/23 09:34:19;;;;;;;8.88;5.07;;;26.30;99.90;;;;;;5111502;28;20244;-66
2021/07/23 09:37:08;;;;;;;7.85;4.95;;;26.20;99.90;;;;;;5111963;28;20674;-66
2021/07/23 09:39:58;;;;;;;8.07;5.05;;;26.50;99.90;;;;;;5111860;28;20368;-66
2021/07/23 09:42:47;;;;;;;12.38;5.82;;;26.50;99.90;;;;;;5111026;28;20202;-66
2021/07/23 09:45:34;;;;;;;7.45;5.38;;;26.30;99.90;;;;;;5112253;28;20817;-66
2021/07/23 09:48:22;;;;;;;9.63;5.03;;;26.50;99.90;;;;;;5111264;28;20676;-67
2021/07/23 09:51:11;;;;;;;7.30;5.20;;;26.80;99.90;;;;;;5111851;28;20240;-66
2021/07/23 09:53:59;;;;;;;9.93;5.15;;;27.10;99.90;;;;;;5143322;27;20555;-66
2021/07/23 09:56:47;;;;;;;6.90;4.97;;;27.40;99.90;;;;;;5152533;27;20219;-67
2021/07/23 09:59:50;;;;;;;12.10;5.03;;;27.40;99.90;;;;;;5152294;27;20190;-66
2021/07/23 10:02:43;;;;;;;7.82;5.22;;;27.30;99.90;;;;;;5152608;27;20198;-66
2021/07/23 10:05:37;;;;;;;6.45;4.95;;;27.60;99.90;;;;;;5151837;27;20293;-66
2021/07/23 10:08:29;;;;;;;8.77;4.88;;;27.30;99.90;;;;;;5152612;27;20198;-66
2021/07/23 10:11:19;;;;;;;8.65;5.25;;;27.20;99.90;;;;;;5151833;27;20198;-66
2021/07/23 10:14:08;;;;;;;9.68;5.07;;;27.20;99.90;;;;;;5152160;27;20205;-66
2021/07/23 10:16:56;;;;;;;8.43;4.90;;;27.10;99.90;;;;;;5151882;27;20328;-67
2021/07/23 10:19:44;;;;;;;8.27;5.18;;;27.40;99.90;;;;;;5151692;27;20660;-66
2021/07/23 10:22:31;;;;;;;9.95;5.20;;;27.50;99.90;;;;;;5152459;27;20230;-66
2021/07/23 10:25:22;;;;;;;7.47;5.00;;;27.70;99.90;;;;;;5151838;27;20210;-66
2021/07/23 10:28:10;;;;;;;6.18;4.65;;;27.60;99.90;;;;;;5152733;27;20208;-66
2021/07/23 10:31:04;;;;;;;9.10;5.40;;;27.70;99.90;;;;;;5151456;27;20193;-66
2021/07/23 10:33:56;;;;;;;11.90;5.75;;;28.00;99.90;;;;;;5151309;27;20544;-66
2021/07/23 10:36:44;;;;;;;11.05;5.45;;;28.40;99.90;;;;;;5151733;27;20585;-66
2021/07/23 10:39:32;;;;;;;6.95;5.45;;;29.00;99.90;;;;;;5151942;27;20194;-67
2021/07/23 10:42:33;;;;;;;8.85;5.47;;;29.20;99.70;;;;;;5152161;27;20198;-66
2021/07/23 10:45:21;;;;;;;8.93;5.28;;;28.70;96.30;;;;;;5152515;27;20771;-66
2021/07/23 10:48:09;;;;;;;9.65;5.50;;;29.10;99.90;;;;;;5151344;27;20212;-66
2021/07/23 10:50:57;;;;;;;8.85;5.22;;;29.40;98.40;;;;;;5151734;27;20209;-66
2021/07/23 10:53:44;;;;;;;6.47;5.28;;;29.30;95.90;;;;;;5151242;27;20633;-66
2021/07/23 10:57:13;;;;;;;7.97;5.30;;;29.70;97.20;;;;;;5152163;27;20201;-66
2021/07/23 11:00:02;;;;;;;8.98;5.50;;;29.20;94.30;;;;;;5066928;28;20204;-66
2021/07/23 11:02:50;;;;;;;10.95;5.47;;;28.90;93.50;;;;;;5066718;28;20201;-66
2021/07/23 11:05:38;;;;;;;12.38;6.10;;;29.10;97.20;;;;;;5066976;28;20212;-66
2021/07/23 11:08:25;;;;;;;9.30;5.00;;;29.20;95.00;;;;;;5067568;28;20636;-66
2021/07/23 11:11:13;;;;;;;7.20;5.05;;;29.10;95.50;;;;;;5066617;28;20334;-66
2021/07/23 11:14:17;;;;;;;6.72;5.05;;;29.20;96.50;;;;;;5067893;28;20205;-66
2021/07/23 11:17:08;;;;;;;6.43;4.80;;;29.20;95.30;;;;;;5066623;28;20203;-66
2021/07/23 11:19:58;;;;;;;9.00;4.93;;;28.90;96.80;;;;;;5067269;28;20279;-66
2021/07/23 11:22:49;;;;;;;13.32;5.65;;;28.50;97.70;;;;;;5067268;28;20283;-66
2021/07/23 11:25:38;;;;;;;7.10;4.80;;;28.00;98.00;;;;;;5066814;28;20256;-66
2021/07/23 11:28:26;;;;;;;9.38;5.60;;;27.70;98.00;;;;;;5066648;28;20197;-66
2021/07/23 11:31:27;;;;;;;9.13;5.28;;;27.40;98.80;;;;;;5132213;27;20265;-66
2021/07/23 11:34:23;;;;;;;9.02;5.30;;;27.20;96.90;;;;;;5150607;27;20193;-66
2021/07/23 11:37:15;;;;;;;11.48;5.50;;;27.00;99.90;;;;;;5150561;27;20194;-66
2021/07/23 11:40:04;;;;;;;9.63;5.90;;;26.70;99.90;;;;;;5150639;27;20197;-66
2021/07/23 11:42:54;;;;;;;7.03;5.47;;;26.60;99.90;;;;;;5150863;27;20205;-66
2021/07/23 11:45:45;;;;;;;8.80;5.53;;;26.60;99.90;;;;;;5150621;27;20226;-66
2021/07/23 11:48:33;;;;;;;9.48;5.40;;;26.60;99.90;;;;;;5154767;27;20198;-66
2021/07/23 11:51:22;;;;;;;7.30;5.28;;;26.60;99.90;;;;;;5154607;27;20201;-66
2021/07/23 11:54:10;;;;;;;10.57;5.57;;;26.70;99.90;;;;;;5154915;27;20771;-66
2021/07/23 11:57:01;;;;;;;12.68;5.80;;;26.70;99.90;;;;;;5155000;27;20186;-66
2021/07/23 11:59:49;;;;;;;10.32;5.57;;;27.20;99.90;;;;;;5154531;27;20194;-66
2021/07/23 12:02:37;;;;;;;7.97;4.95;;;27.40;99.90;;;;;;5155066;27;20200;-66
2021/07/23 12:05:33;;;;;;;6.45;4.85;;;27.90;99.90;;;;;;5154994;27;20224;-66
2021/07/23 12:08:23;;;;;;;7.90;5.25;;;27.80;99.90;;;;;;5154425;27;20194;-66
2021/07/23 12:11:13;;;;;;;6.55;4.90;;;27.70;99.90;;;;;;5155180;27;20205;-66
2021/07/23 12:14:05;;;;;;;8.85;5.50;;;27.80;99.80;;;;;;5155079;27;20284;-66
2021/07/23 12:16:53;;;;;;;8.75;5.35;;;28.20;99.50;;;;;;5155386;27;20225;-66
2021/07/23 12:19:41;;;;;;;7.97;5.07;;;28.60;99.10;;;;;;5154489;27;20246;-66
2021/07/23 12:22:29;;;;;;;9.18;5.20;;;29.10;97.30;;;;;;5154047;27;20277;-66
2021/07/23 12:25:19;;;;;;;7.35;5.15;;;29.00;95.20;;;;;;5153772;27;20236;-66
2021/07/23 12:28:08;;;;;;;7.80;4.75;;;29.10;93.50;;;;;;5154673;27;20205;-66
2021/07/23 12:30:56;;;;;;;8.95;4.90;;;29.30;93.20;;;;;;5154534;27;20202;-66
2021/07/23 12:34:03;;;;;;;7.00;5.10;;;29.50;93.80;;;;;;5154571;27;20198;-66
2021/07/23 12:36:55;;;;;;;11.50;5.63;;;29.50;92.00;;;;;;5153786;27;20197;-66
2021/07/23 12:40:11;;;;;;;9.13;4.97;;;30.00;95.60;;;;;;5154143;27;20288;-66
2021/07/23 12:43:19;;;;;;;8.85;5.43;;;29.90;91.80;;;;;;5090526;27;20205;-66
2021/07/23 12:46:17;;;;;;;10.70;5.90;;;29.60;88.00;;;;;;5154808;27;20225;-66
2021/07/23 12:49:17;;;;;;;8.10;5.10;;;29.40;85.00;;;;;;5152848;27;20213;-66
2021/07/23 12:52:09;;;;;;;12.15;5.00;;;29.20;84.70;;;;;;5154165;27;20198;-66
2021/07/23 12:55:08;;;;;;;8.82;4.68;;;29.10;86.00;;;;;;5131959;27;20198;-66
2021/07/23 12:57:59;;;;;;;10.45;5.00;;;29.20;87.40;;;;;;5133112;27;20214;-66
2021/07/23 13:00:55;;;;;;;12.55;5.15;;;28.90;85.00;;;;;;5133683;27;20194;-67
2021/07/23 13:03:43;;;;;;;8.10;5.40;;;28.60;88.90;;;;;;5133781;27;20213;-66
2021/07/23 13:06:31;;;;;;;8.25;5.40;;;28.00;90.80;;;;;;5133561;27;20214;-66
2021/07/23 13:09:19;;;;;;;9.80;5.60;;;27.80;91.20;;;;;;5133029;27;20205;-66
2021/07/23 13:12:07;;;;;;;6.97;5.10;;;27.60;92.50;;;;;;5132982;27;20202;-66
2021/07/23 13:14:55;;;;;;;10.38;5.20;;;27.30;95.00;;;;;;5133459;27;20713;-66
2021/07/23 13:17:44;;;;;;;7.10;5.53;;;27.10;93.60;;;;;;5133572;27;20191;-66
2021/07/23 13:20:31;;;;;;;7.47;4.97;;;27.00;94.10;;;;;;5133296;27;20275;-66
2021/07/23 13:23:19;;;;;;;13.30;5.68;;;27.00;95.60;;;;;;5133308;27;20205;-66
2021/07/23 13:26:07;;;;;;;8.45;5.47;;;27.10;96.60;;;;;;5133164;27;20639;-66
2021/07/23 13:28:55;;;;;;;12.18;5.40;;;27.10;96.20;;;;;;5133234;27;20207;-66
2021/07/23 13:31:43;;;;;;;7.32;5.55;;;27.30;98.10;;;;;;5132927;27;20207;-66
2021/07/23 13:34:43;;;;;;;6.95;5.30;;;27.40;95.50;;;;;;5132319;27;20285;-66
2021/07/23 13:37:44;;;;;;;9.30;5.90;;;27.30;96.60;;;;;;5132472;27;20328;-66
2021/07/23 13:40:39;;;;;;;8.80;5.07;;;27.20;96.80;;;;;;5133084;27;20809;-66
2021/07/23 13:43:27;;;;;;;8.25;5.53;;;27.20;97.90;;;;;;5132338;27;20190;-66
2021/07/23 13:46:14;;;;;;;7.07;5.40;;;27.20;97.50;;;;;;5132727;27;20234;-66
2021/07/23 13:49:02;;;;;;;6.90;5.45;;;27.30;97.60;;;;;;5132283;27;20309;-66
2021/07/23 13:51:51;;;;;;;8.07;5.28;;;27.60;96.30;;;;;;5132103;27;20195;-66
2021/07/23 13:54:40;;;;;;;9.02;5.50;;;27.40;91.00;;;;;;5131504;27;20213;-66
2021/07/23 13:57:29;;;;;;;6.95;5.40;;;27.50;96.60;;;;;;5131962;27;20283;-66
2021/07/23 14:00:17;;;;;;;6.75;4.97;;;27.80;99.10;;;;;;5131470;27;20209;-66
2021/07/23 14:03:05;;;;;;;7.82;4.97;;;28.00;99.30;;;;;;5131977;27;20197;-66
2021/07/23 14:05:57;;;;;;;11.32;5.40;;;28.70;97.30;;;;;;5131824;27;20566;-66
2021/07/23 14:08:47;;;;;;;6.72;5.15;;;29.00;91.60;;;;;;5131645;27;20203;-66
2021/07/23 14:11:39;;;;;;;8.65;5.22;;;29.20;88.70;;;;;;5131947;27;20210;-66
2021/07/23 14:14:27;;;;;;;8.75;5.43;;;29.50;89.50;;;;;;5131018;27;20209;-66
2021/07/23 14:17:15;;;;;;;7.53;5.05;;;29.20;83.40;;;;;;5132349;27;20205;-66
2021/07/23 14:20:02;;;;;;;9.88;5.53;;;29.10;85.60;;;;;;5131784;27;20202;-66
2021/07/23 14:22:50;;;;;;;8.23;4.90;;;29.70;84.30;;;;;;5132402;27;20240;-66
2021/07/23 14:25:39;;;;;;;7.15;4.80;;;30.00;82.00;;;;;;5131575;27;20209;-66
2021/07/23 14:28:27;;;;;;;11.57;5.53;;;30.00;79.10;;;;;;5132078;27;20186;-66
2021/07/23 14:31:19;;;;;;;8.02;5.05;;;29.80;78.40;;;;;;5131504;27;20206;-66
2021/07/23 14:34:07;;;;;;;11.75;5.30;;;30.40;79.90;;;;;;5130785;27;20204;-66
2021/07/23 14:36:54;;;;;;;7.53;5.13;;;30.60;79.10;;;;;;5131783;27;20666;-66